Legend Of The Seas — C6SL5 — position and weather

sailwx.info

Track history (hours):
 
Tides and Currents Weather Stations Pressure Air Temp Water Temp Dewpoint Dewpoint Depression Visibility Wind Speed Wind Dir Waves Ship Positions

Legend Of The Seas

Operator: Royal Caribbean Cruises Ltd

Last reported at 2016-Jul-30 10:33 UTC. Time now 2016-Jul-30 11:02 UTC.
Position N 38°47' E 121°50'.

Type: Passenger vessel. MMSI: 311378000.

Date/timePositionNaut miles runAvg speedWind from/ knotsBaromVisibWave heightAir tempDewpointWater temp
2016-Jul-30 10:33N 38°47' E 121°50'1212.2
2016-Jul-30 09:32N 38°56' E 121°40'0 0.0
2016-Jul-30 03:15N 38°56' E 121°40'0 0.0
2016-Jul-30 02:30N 38°56' E 121°40'0 0.0
2016-Jul-30 01:33N 38°56' E 121°40'4 1.3
2016-Jul-29 22:21N 38°56' E 121°45'4 4.6
2016-Jul-29 21:33N 38°52' E 121°47'1313.3
2016-Jul-29 20:34N 38°42' E 121°57'3215.9
2016-Jul-29 18:33N 38°18' E 122°25'1715.7
2016-Jul-29 17:27N 38°05' E 122°40'1416.0
2016-Jul-29 16:33N 37°55' E 122°52'1616.1
2016-Jul-29 15:33N 37°42' E 123°05'1615.6
2016-Jul-29 14:33N 37°30' E 123°17'1616.2
2016-Jul-29 13:34N 37°15' E 123°26'1616.1
2016-Jul-29 12:33N 37°01' E 123°35'1615.5
2016-Jul-29 11:33N 36°47' E 123°43'1515.3
2016-Jul-29 10:33N 36°33' E 123°51'  
2016-Jul-25 19:19N 36°39' E 123°44'1519.0
2016-Jul-25 18:33N 36°52' E 123°36'1919.0
2016-Jul-25 17:34N 37°10' E 123°29'1918.5
2016-Jul-25 16:33N 37°27' E 123°20'1817.7
2016-Jul-25 15:33N 37°41' E 123°07'1817.7
2016-Jul-25 14:34N 37°55' E 122°52'1817.7
2016-Jul-25 13:32N 38°08' E 122°36'3618.2
2016-Jul-25 11:33N 38°34' E 122°05'1818.0
2016-Jul-25 10:34N 38°47' E 121°49'1111.2
2016-Jul-25 09:32N 38°56' E 121°40'0 0.0
2016-Jul-24 22:33N 38°56' E 121°40'6 5.9
2016-Jul-24 21:33N 38°54' E 121°47'1313.4
2016-Jul-24 20:33N 38°43' E 121°57'2016.1
2016-Jul-24 19:19N 38°28' E 122°13'1515.9
2016-Jul-24 18:21N 38°17' E 122°26'1215.6
2016-Jul-24 17:34N 38°07' E 122°37'1918.7
2016-Jul-24 16:33N 37°54' E 122°54'1919.5
2016-Jul-24 15:33N 37°39' E 123°09'2020.1
2016-Jul-24 14:33N 37°21' E 123°20'2020.2
2016-Jul-24 13:34N 37°02' E 123°28'2020.1
2016-Jul-24 12:33N 36°43' E 123°36'12320.0
2016-Jul-24 06:25N 34°46' E 124°22'  
2016-Jul-20 18:14N 38°29' E 122°11'1420.7
2016-Jul-20 17:34N 38°40' E 121°58'1917.7
2016-Jul-20 16:29N 38°55' E 121°45'  
Track history (hours):
 
Tides and Currents Weather Stations Pressure Air Temp Water Temp Dewpoint Dewpoint Depression Visibility Wind Speed Wind Dir Waves Ship Positions

Legend Of The Seas

Operator: Royal Caribbean Cruises Ltd

Last reported at 2016-Jul-30 10:33 UTC. Time now 2016-Jul-30 11:02 UTC.
Position N 38°47' E 121°50'.

Type: Passenger vessel. MMSI: 311378000.

Date/timePositionNaut miles runAvg speedWind from/ knotsBaromVisibWave heightAir tempDewpointWater temp
2016-Jul-30 10:33N 38°47' E 121°50'1212.2
2016-Jul-30 09:32N 38°56' E 121°40'0 0.0
2016-Jul-30 03:15N 38°56' E 121°40'0 0.0
2016-Jul-30 02:30N 38°56' E 121°40'0 0.0
2016-Jul-30 01:33N 38°56' E 121°40'4 1.3
2016-Jul-29 22:21N 38°56' E 121°45'4 4.6
2016-Jul-29 21:33N 38°52' E 121°47'1313.3
2016-Jul-29 20:34N 38°42' E 121°57'3215.9
2016-Jul-29 18:33N 38°18' E 122°25'1715.7
2016-Jul-29 17:27N 38°05' E 122°40'1416.0
2016-Jul-29 16:33N 37°55' E 122°52'1616.1
2016-Jul-29 15:33N 37°42' E 123°05'1615.6
2016-Jul-29 14:33N 37°30' E 123°17'1616.2
2016-Jul-29 13:34N 37°15' E 123°26'1616.1
2016-Jul-29 12:33N 37°01' E 123°35'1615.5
2016-Jul-29 11:33N 36°47' E 123°43'1515.3
2016-Jul-29 10:33N 36°33' E 123°51'  
2016-Jul-25 19:19N 36°39' E 123°44'1519.0
2016-Jul-25 18:33N 36°52' E 123°36'1919.0
2016-Jul-25 17:34N 37°10' E 123°29'1918.5
2016-Jul-25 16:33N 37°27' E 123°20'1817.7
2016-Jul-25 15:33N 37°41' E 123°07'1817.7
2016-Jul-25 14:34N 37°55' E 122°52'1817.7
2016-Jul-25 13:32N 38°08' E 122°36'3618.2
2016-Jul-25 11:33N 38°34' E 122°05'1818.0
2016-Jul-25 10:34N 38°47' E 121°49'1111.2
2016-Jul-25 09:32N 38°56' E 121°40'0 0.0
2016-Jul-24 22:33N 38°56' E 121°40'6 5.9
2016-Jul-24 21:33N 38°54' E 121°47'1313.4
2016-Jul-24 20:33N 38°43' E 121°57'2016.1
2016-Jul-24 19:19N 38°28' E 122°13'1515.9
2016-Jul-24 18:21N 38°17' E 122°26'1215.6
2016-Jul-24 17:34N 38°07' E 122°37'1918.7
2016-Jul-24 16:33N 37°54' E 122°54'1919.5
2016-Jul-24 15:33N 37°39' E 123°09'2020.1
2016-Jul-24 14:33N 37°21' E 123°20'2020.2
2016-Jul-24 13:34N 37°02' E 123°28'2020.1
2016-Jul-24 12:33N 36°43' E 123°36'12320.0
2016-Jul-24 06:25N 34°46' E 124°22'  
2016-Jul-20 18:14N 38°29' E 122°11'1420.7
2016-Jul-20 17:34N 38°40' E 121°58'1917.7
2016-Jul-20 16:29N 38°55' E 121°45'  

Dump ship's entire track history